createdAt,value
2017-12-17T00:01:21.943Z,100562
2017-12-17T00:03:50.009Z,100557
2017-12-17T00:06:18.079Z,100557
2017-12-17T00:08:46.130Z,100554
2017-12-17T00:11:14.255Z,100547
2017-12-17T00:13:42.431Z,100555
2017-12-17T00:16:10.486Z,100559
2017-12-17T00:18:38.546Z,100573
2017-12-17T00:21:06.641Z,100566
2017-12-17T00:23:34.714Z,100573
2017-12-17T00:26:02.774Z,100578
2017-12-17T00:28:30.844Z,100566
2017-12-17T00:30:58.923Z,100575
2017-12-17T00:33:26.991Z,100571
2017-12-17T00:35:55.064Z,100583
2017-12-17T00:38:23.131Z,100581
2017-12-17T00:40:51.194Z,100589
2017-12-17T00:43:19.272Z,100591
2017-12-17T00:45:47.440Z,100599
2017-12-17T00:48:15.510Z,100603
2017-12-17T00:50:43.579Z,100598
2017-12-17T00:53:11.656Z,100593
2017-12-17T00:55:39.826Z,100602
2017-12-17T00:58:07.903Z,100594
2017-12-17T01:00:36.068Z,100599
2017-12-17T01:03:04.135Z,100599
2017-12-17T01:05:32.217Z,100603
2017-12-17T01:08:00.300Z,100618
2017-12-17T01:10:28.462Z,100615
2017-12-17T01:12:56.639Z,100611
2017-12-17T01:15:24.711Z,100612
2017-12-17T01:17:52.771Z,100611
2017-12-17T01:20:20.844Z,100615
2017-12-17T01:22:48.903Z,100608
2017-12-17T01:25:16.979Z,100613
2017-12-17T01:27:45.055Z,100619
2017-12-17T01:30:13.231Z,100619
2017-12-17T01:32:41.391Z,100627
2017-12-17T01:35:09.463Z,100628
2017-12-17T01:37:37.523Z,100633
2017-12-17T01:40:05.600Z,100628
2017-12-17T01:42:33.666Z,100635
2017-12-17T01:45:01.913Z,100629
2017-12-17T01:47:29.984Z,100624
2017-12-17T01:49:58.047Z,100632
2017-12-17T01:52:26.120Z,100623
2017-12-17T01:54:54.191Z,100629
2017-12-17T01:57:22.308Z,100619
2017-12-17T01:59:50.371Z,100626
2017-12-17T02:02:18.447Z,100638
2017-12-17T02:04:46.517Z,100623
2017-12-17T02:07:14.582Z,100638
2017-12-17T02:09:42.645Z,100643
2017-12-17T02:12:10.716Z,100642
2017-12-17T02:14:38.771Z,100642
2017-12-17T02:17:06.838Z,100652
2017-12-17T02:19:34.907Z,100647
2017-12-17T02:22:03.018Z,100655
2017-12-17T02:24:31.093Z,100644
2017-12-17T02:26:59.251Z,100658
2017-12-17T02:29:27.325Z,100663
2017-12-17T02:31:55.408Z,100657
2017-12-17T02:34:23.480Z,100646
2017-12-17T02:36:51.648Z,100647
2017-12-17T02:39:19.818Z,100649
2017-12-17T02:41:47.875Z,100660
2017-12-17T02:44:15.971Z,100663
2017-12-17T02:46:44.841Z,100671
2017-12-17T02:49:12.949Z,100661
2017-12-17T02:51:41.836Z,100669
2017-12-17T02:54:10.706Z,100656
2017-12-17T02:56:38.773Z,100666
2017-12-17T02:59:06.867Z,100668
2017-12-17T03:01:34.928Z,100665
2017-12-17T03:04:03.761Z,100667
2017-12-17T03:06:31.836Z,100661
2017-12-17T03:08:59.894Z,100663
2017-12-17T03:11:27.963Z,100667
2017-12-17T03:13:56.044Z,100671
2017-12-17T03:16:24.111Z,100679
2017-12-17T03:18:52.179Z,100669
2017-12-17T03:21:20.255Z,100677
2017-12-17T03:23:48.340Z,100683
2017-12-17T03:26:16.414Z,100686
2017-12-17T03:28:44.480Z,100677
2017-12-17T03:31:12.602Z,100690
2017-12-17T03:33:41.436Z,100696
2017-12-17T03:36:09.496Z,100701
2017-12-17T03:38:37.584Z,100702
2017-12-17T03:41:05.667Z,100695
2017-12-17T03:43:33.736Z,100699
2017-12-17T03:46:01.812Z,100711
2017-12-17T03:48:29.937Z,100712
2017-12-17T03:50:58.005Z,100704
2017-12-17T03:53:26.073Z,100707
2017-12-17T03:55:54.146Z,100708
2017-12-17T03:58:22.256Z,100718
2017-12-17T04:00:50.352Z,100723
2017-12-17T04:03:18.452Z,100723
2017-12-17T04:05:46.515Z,100732
2017-12-17T04:08:15.356Z,100722
2017-12-17T04:10:43.422Z,100733
2017-12-17T04:13:11.496Z,100735
2017-12-17T04:15:39.560Z,100721
2017-12-17T04:18:07.632Z,100718
2017-12-17T04:20:35.704Z,100719
2017-12-17T04:23:03.801Z,100727
2017-12-17T04:25:31.862Z,100727
2017-12-17T04:28:00.039Z,100720
2017-12-17T04:30:28.103Z,100732
2017-12-17T04:32:56.169Z,100721
2017-12-17T04:35:24.271Z,100730
2017-12-17T04:37:53.107Z,100735
2017-12-17T04:40:21.183Z,100729
2017-12-17T04:42:49.257Z,100755
2017-12-17T04:45:17.321Z,100752
2017-12-17T04:47:45.379Z,100759
2017-12-17T04:50:13.440Z,100742
2017-12-17T04:52:41.512Z,100759
2017-12-17T04:55:09.629Z,100761
2017-12-17T04:57:37.663Z,100756
2017-12-17T05:00:05.761Z,100773
2017-12-17T05:02:33.886Z,100770
2017-12-17T05:05:01.956Z,100767
2017-12-17T05:07:30.026Z,100767
2017-12-17T05:09:58.079Z,100771
2017-12-17T05:12:26.919Z,100762
2017-12-17T05:14:55.007Z,100769
2017-12-17T05:17:23.902Z,100779
2017-12-17T05:19:51.976Z,100784
2017-12-17T05:22:20.039Z,100785
2017-12-17T05:24:48.396Z,100794
2017-12-17T05:27:16.458Z,100797
2017-12-17T05:29:44.530Z,100805
2017-12-17T05:32:12.607Z,100812
2017-12-17T05:34:40.679Z,100806
2017-12-17T05:37:08.752Z,100806
2017-12-17T05:39:36.820Z,100813
2017-12-17T05:42:04.891Z,100816
2017-12-17T05:44:32.963Z,100829
2017-12-17T05:47:01.051Z,100830
2017-12-17T05:49:29.222Z,100834
2017-12-17T05:51:57.394Z,100846
2017-12-17T05:54:25.483Z,100834
2017-12-17T05:56:53.542Z,100839
2017-12-17T05:59:21.618Z,100838
2017-12-17T06:01:49.687Z,100851
2017-12-17T06:04:17.753Z,100849
2017-12-17T06:06:45.819Z,100849
2017-12-17T06:09:13.903Z,100848
2017-12-17T06:11:41.970Z,100853
2017-12-17T06:14:10.048Z,100844
2017-12-17T06:16:38.113Z,100848
2017-12-17T06:19:06.190Z,100844
2017-12-17T06:21:34.250Z,100837
2017-12-17T06:24:02.412Z,100844
2017-12-17T06:26:30.476Z,100850
2017-12-17T06:28:58.547Z,100844
2017-12-17T06:31:26.619Z,100850
2017-12-17T06:33:54.696Z,100854
2017-12-17T06:36:22.764Z,100865
2017-12-17T06:38:50.841Z,100854
2017-12-17T06:41:18.932Z,100862
2017-12-17T06:43:47.012Z,100864
2017-12-17T06:46:15.871Z,100861
2017-12-17T06:48:43.936Z,100861
2017-12-17T06:51:12.064Z,100867
2017-12-17T06:53:40.184Z,100863
2017-12-17T06:56:08.269Z,100875
2017-12-17T06:58:36.327Z,100885
2017-12-17T07:01:04.405Z,100889
2017-12-17T07:03:32.475Z,100892
2017-12-17T07:06:00.563Z,100894
2017-12-17T07:08:29.395Z,100908
2017-12-17T07:10:57.505Z,100914
2017-12-17T07:13:25.679Z,100908
2017-12-17T07:15:53.747Z,100917
2017-12-17T07:18:21.816Z,100922
2017-12-17T07:20:50.013Z,100915
2017-12-17T07:23:18.864Z,100932
2017-12-17T07:25:46.920Z,100923
2017-12-17T07:28:14.995Z,100933
2017-12-17T07:30:43.055Z,100929
2017-12-17T07:33:11.152Z,100926
2017-12-17T07:35:39.212Z,100935
2017-12-17T07:38:07.280Z,100939
2017-12-17T07:40:35.348Z,100947
2017-12-17T07:43:03.430Z,100939
2017-12-17T07:45:31.503Z,100952
2017-12-17T07:47:59.568Z,100958
2017-12-17T07:50:27.634Z,100951
2017-12-17T07:52:55.723Z,100965
2017-12-17T07:55:23.779Z,100967
2017-12-17T07:57:51.864Z,100970
2017-12-17T08:00:19.931Z,100982
2017-12-17T08:02:54.032Z,100974
2017-12-17T08:05:22.106Z,100982
2017-12-17T08:07:50.175Z,100984
2017-12-17T08:10:18.250Z,100983
2017-12-17T08:12:46.303Z,100993
2017-12-17T08:15:14.380Z,100999
2017-12-17T08:17:42.447Z,101001
2017-12-17T08:20:10.522Z,101013
2017-12-17T08:22:38.590Z,101011
2017-12-17T08:25:06.663Z,101000
2017-12-17T08:27:34.723Z,101012
2017-12-17T08:30:02.811Z,101013
2017-12-17T08:32:30.884Z,101024
2017-12-17T08:34:59.220Z,101027
2017-12-17T08:37:27.282Z,101030
2017-12-17T08:39:55.351Z,101034
2017-12-17T08:42:23.418Z,101033
2017-12-17T08:44:51.492Z,101043
2017-12-17T08:47:19.573Z,101047
2017-12-17T08:49:47.673Z,101044
2017-12-17T08:52:15.745Z,101048
2017-12-17T08:54:43.807Z,101053
2017-12-17T08:57:11.960Z,101056
2017-12-17T08:59:40.025Z,101062
2017-12-17T09:02:08.100Z,101067
2017-12-17T09:04:36.204Z,101064
2017-12-17T09:07:04.230Z,101072
2017-12-17T09:09:32.308Z,101081
2017-12-17T09:12:00.376Z,101077
2017-12-17T09:14:28.445Z,101091
2017-12-17T09:16:56.519Z,101093
2017-12-17T09:19:24.588Z,101094
2017-12-17T09:21:52.646Z,101099
2017-12-17T09:24:20.711Z,101109
2017-12-17T09:26:49.565Z,101117
2017-12-17T09:29:17.638Z,101115
2017-12-17T09:31:45.699Z,101121
2017-12-17T09:34:13.876Z,101119
2017-12-17T09:36:41.951Z,101109
2017-12-17T09:39:10.123Z,101109
2017-12-17T09:41:38.263Z,101110
2017-12-17T09:44:06.325Z,101110
2017-12-17T09:46:34.401Z,101117
2017-12-17T09:49:02.476Z,101117
2017-12-17T09:51:30.755Z,101117
2017-12-17T09:53:58.836Z,101122
2017-12-17T09:56:26.894Z,101124
2017-12-17T09:58:54.959Z,101129
2017-12-17T10:01:23.047Z,101138
2017-12-17T10:03:51.111Z,101139
2017-12-17T10:06:19.185Z,101130
2017-12-17T10:08:47.251Z,101140
2017-12-17T10:11:15.388Z,101150
2017-12-17T10:13:43.466Z,101140
2017-12-17T11:32:09.159Z,101205
2017-12-17T11:34:37.279Z,101200
2017-12-17T11:37:05.454Z,101201
2017-12-17T11:39:33.526Z,101197
2017-12-17T11:42:01.590Z,101203
2017-12-17T11:44:29.663Z,101207
2017-12-17T11:46:57.739Z,101209
2017-12-17T11:49:25.804Z,101204
2017-12-17T11:51:53.875Z,101203
2017-12-17T11:54:21.979Z,101215
2017-12-17T11:56:50.805Z,101210
2017-12-17T11:59:18.881Z,101215
2017-12-17T12:01:46.947Z,101216
2017-12-17T12:04:15.016Z,101209
2017-12-17T12:06:43.115Z,101215
2017-12-17T12:09:11.303Z,101216
2017-12-17T12:11:39.381Z,101226
2017-12-17T12:14:07.455Z,101233
2017-12-17T12:16:35.511Z,101226
2017-12-17T12:19:03.571Z,101235
2017-12-17T12:21:31.639Z,101236
2017-12-17T12:23:59.715Z,101235
2017-12-17T12:26:27.786Z,101255
2017-12-17T12:28:55.859Z,101237
2017-12-17T12:31:23.931Z,101244
2017-12-17T12:33:51.986Z,101242
2017-12-17T12:36:20.060Z,101239
2017-12-17T12:38:48.131Z,101248
2017-12-17T12:41:16.214Z,101251
2017-12-17T12:43:44.283Z,101269
2017-12-17T12:46:12.354Z,101265
2017-12-17T12:48:40.430Z,101265
2017-12-17T12:51:08.494Z,101272
2017-12-17T12:53:36.570Z,101270
2017-12-17T12:56:04.631Z,101276
2017-12-17T12:58:32.701Z,101266
2017-12-17T13:01:00.771Z,101276
2017-12-17T13:03:28.866Z,101277
2017-12-17T13:05:56.920Z,101279
2017-12-17T13:08:24.991Z,101277
2017-12-17T13:10:53.067Z,101290
2017-12-17T13:13:21.146Z,101282
2017-12-17T13:15:49.983Z,101291
2017-12-17T13:18:18.070Z,101283
2017-12-17T13:20:46.156Z,101284
2017-12-17T13:23:14.333Z,101290
2017-12-17T13:25:42.405Z,101292
2017-12-17T13:28:10.516Z,101294
2017-12-17T13:30:38.598Z,101300
2017-12-17T13:33:06.651Z,101297
2017-12-17T13:35:34.718Z,101295
2017-12-17T13:38:08.758Z,101309
2017-12-17T13:40:36.823Z,101305
2017-12-17T13:43:04.899Z,101316
2017-12-17T13:45:32.974Z,101309
2017-12-17T13:48:01.049Z,101308
2017-12-17T13:50:29.123Z,101312
2017-12-17T13:52:57.194Z,101313
2017-12-17T13:55:25.276Z,101315
2017-12-17T13:57:53.349Z,101312
2017-12-17T14:00:21.451Z,101321
2017-12-17T14:02:50.293Z,101332
2017-12-17T14:05:18.751Z,101321
2017-12-17T14:07:46.827Z,101321
2017-12-17T14:10:14.899Z,101340
2017-12-17T14:12:42.968Z,101348
2017-12-17T14:15:11.040Z,101343
2017-12-17T14:17:39.113Z,101352
2017-12-17T14:20:07.190Z,101356
2017-12-17T14:22:35.267Z,101357
2017-12-17T14:25:03.353Z,101358
2017-12-17T14:27:31.410Z,101363
2017-12-17T14:29:59.479Z,101365
2017-12-17T14:32:27.938Z,101377
2017-12-17T14:34:56.007Z,101381
2017-12-17T14:37:24.095Z,101391
2017-12-17T14:39:52.152Z,101392
2017-12-17T14:42:20.219Z,101391
2017-12-17T14:44:48.288Z,101395
2017-12-17T14:47:16.352Z,101391
2017-12-17T14:49:44.450Z,101399
2017-12-17T14:52:12.527Z,101390
2017-12-17T14:54:40.591Z,101402
2017-12-17T14:57:08.670Z,101396
2017-12-17T14:59:36.726Z,101407
2017-12-17T15:02:04.880Z,101418
2017-12-17T15:04:32.947Z,101420
2017-12-17T15:07:01.011Z,101418
2017-12-17T15:09:29.096Z,101426
2017-12-17T15:11:57.171Z,101430
2017-12-17T15:14:25.285Z,101426
2017-12-17T15:16:53.451Z,101439
2017-12-17T15:19:21.527Z,101441
2017-12-17T15:21:49.593Z,101450
2017-12-17T15:24:17.658Z,101456
2017-12-17T15:26:45.763Z,101456
2017-12-17T15:29:14.614Z,101467
2017-12-17T15:31:42.678Z,101459
2017-12-17T15:34:10.747Z,101463
2017-12-17T15:36:38.815Z,101460
2017-12-17T15:39:06.896Z,101469
2017-12-17T15:41:34.959Z,101472
2017-12-17T15:44:03.032Z,101468
2017-12-17T15:46:32.157Z,101476
2017-12-17T15:49:00.988Z,101471
2017-12-17T15:51:29.059Z,101472
2017-12-17T15:53:57.138Z,101482
2017-12-17T15:56:25.201Z,101475
2017-12-17T15:58:53.271Z,101477
2017-12-17T16:01:21.379Z,101484
2017-12-17T16:03:49.436Z,101489
2017-12-17T16:06:17.577Z,101496
2017-12-17T16:08:45.708Z,101502
2017-12-17T16:11:13.786Z,101505
2017-12-17T16:13:42.623Z,101498
2017-12-17T16:16:10.695Z,101516
2017-12-17T16:18:39.367Z,101522
2017-12-17T16:21:07.443Z,101518
2017-12-17T16:23:35.510Z,101527
2017-12-17T16:26:03.576Z,101530
2017-12-17T16:28:31.638Z,101535
2017-12-17T16:30:59.763Z,101533
2017-12-17T16:33:27.822Z,101531
2017-12-17T16:35:55.901Z,101549
2017-12-17T16:38:23.970Z,101534
2017-12-17T16:40:52.048Z,101541
2017-12-17T16:43:20.303Z,101537
2017-12-17T16:45:48.382Z,101547
2017-12-17T16:48:16.523Z,101545
2017-12-17T16:50:44.617Z,101555
2017-12-17T16:53:12.712Z,101553
2017-12-17T16:55:40.775Z,101550
2017-12-17T16:58:08.952Z,101558
2017-12-17T17:00:37.078Z,101556
2017-12-17T17:03:05.153Z,101558
2017-12-17T17:05:33.226Z,101573
2017-12-17T17:08:01.300Z,101575
2017-12-17T17:10:29.373Z,101582
2017-12-17T17:12:57.439Z,101574
2017-12-17T17:15:26.297Z,101580
2017-12-17T17:17:55.129Z,101581
2017-12-17T17:20:23.190Z,101577
2017-12-17T17:22:51.261Z,101595
2017-12-17T17:25:19.323Z,101594
2017-12-17T17:27:47.391Z,101596
2017-12-17T17:30:15.463Z,101606
2017-12-17T17:32:43.586Z,101607
2017-12-17T17:35:11.644Z,101604
2017-12-17T17:37:40.331Z,101612
2017-12-17T17:40:08.405Z,101622
2017-12-17T17:42:36.647Z,101617
2017-12-17T17:45:04.656Z,101612
2017-12-17T17:47:33.231Z,101603
2017-12-17T17:50:01.319Z,101609
2017-12-17T17:52:30.156Z,101620
2017-12-17T17:54:58.235Z,101621
2017-12-17T17:57:26.300Z,101624
2017-12-17T17:59:54.362Z,101630
2017-12-17T18:02:22.430Z,101624
2017-12-17T18:04:50.510Z,101631
2017-12-17T18:07:18.572Z,101625
2017-12-17T18:09:46.643Z,101629
2017-12-17T18:12:14.716Z,101629
2017-12-17T18:14:42.791Z,101627
2017-12-17T18:17:10.863Z,101628
2017-12-17T18:19:38.933Z,101627
2017-12-17T18:22:07.005Z,101624
2017-12-17T18:24:35.141Z,101633
2017-12-17T18:27:03.962Z,101636
2017-12-17T18:29:32.087Z,101638
2017-12-17T18:32:00.938Z,101642
2017-12-17T18:34:29.007Z,101641
2017-12-17T18:36:57.678Z,101641
2017-12-17T18:39:25.769Z,101635
2017-12-17T18:41:53.847Z,101639
2017-12-17T18:44:22.025Z,101640
2017-12-17T18:46:50.104Z,101645
2017-12-17T18:49:18.180Z,101645
2017-12-17T18:51:47.025Z,101640
2017-12-17T18:54:15.094Z,101639
2017-12-17T18:56:43.158Z,101649
2017-12-17T18:59:11.260Z,101649
2017-12-17T19:01:39.333Z,101654
2017-12-17T19:04:07.403Z,101652
2017-12-17T19:06:35.499Z,101658
2017-12-17T19:09:03.660Z,101644
2017-12-17T19:11:31.731Z,101657
2017-12-17T19:13:59.887Z,101641
2017-12-17T19:16:27.963Z,101647
2017-12-17T19:18:56.131Z,101650
2017-12-17T19:21:24.207Z,101652
2017-12-17T19:23:52.378Z,101652
2017-12-17T19:26:20.444Z,101652
2017-12-17T19:28:48.519Z,101652
2017-12-17T19:31:16.694Z,101647
2017-12-17T19:33:44.759Z,101656
2017-12-17T19:36:12.814Z,101656
2017-12-17T19:38:40.903Z,101663
2017-12-17T19:41:08.967Z,101668
2017-12-17T19:43:37.142Z,101674
2017-12-17T19:46:05.211Z,101680
2017-12-17T19:48:33.297Z,101679
2017-12-17T19:51:01.355Z,101676
2017-12-17T19:53:29.437Z,101682
2017-12-17T19:55:57.492Z,101677
2017-12-17T19:58:25.562Z,101681
2017-12-17T20:00:53.638Z,101685
2017-12-17T20:03:21.807Z,101680
2017-12-17T20:05:49.862Z,101685
2017-12-17T20:08:17.964Z,101690
2017-12-17T20:10:46.507Z,101687
2017-12-17T20:13:14.568Z,101698
2017-12-17T20:15:42.631Z,101696
2017-12-17T20:18:10.699Z,101704
2017-12-17T20:20:38.765Z,101702
2017-12-17T20:23:06.826Z,101700
2017-12-17T20:25:34.899Z,101708
2017-12-17T20:28:02.983Z,101701
2017-12-17T20:30:31.060Z,101704
2017-12-17T20:32:59.256Z,101706
2017-12-17T20:35:27.314Z,101709
2017-12-17T20:37:55.406Z,101705
2017-12-17T20:40:23.475Z,101711
2017-12-17T20:42:51.544Z,101714
2017-12-17T20:45:19.637Z,101709
2017-12-17T20:47:48.530Z,101709
2017-12-17T20:50:16.599Z,101706
2017-12-17T20:52:44.672Z,101706
2017-12-17T20:55:12.743Z,101712
2017-12-17T20:57:40.807Z,101720
2017-12-17T21:00:08.877Z,101724
2017-12-17T21:02:38.001Z,101720
2017-12-17T21:05:06.844Z,101719
2017-12-17T21:07:34.910Z,101731
2017-12-17T21:10:02.990Z,101736
2017-12-17T21:12:31.046Z,101743
2017-12-17T21:14:59.112Z,101740
2017-12-17T21:17:27.181Z,101733
2017-12-17T21:19:55.243Z,101737
2017-12-17T21:22:23.354Z,101730
2017-12-17T21:24:51.499Z,101734
2017-12-17T21:27:19.575Z,101731
2017-12-17T21:29:47.646Z,101733
2017-12-17T21:32:15.710Z,101734
2017-12-17T21:34:43.771Z,101739
2017-12-17T21:37:11.844Z,101741
2017-12-17T21:39:39.907Z,101748
2017-12-17T21:42:08.027Z,101748
2017-12-17T21:44:36.054Z,101754
2017-12-17T21:47:04.127Z,101751
2017-12-17T21:49:32.202Z,101751
2017-12-17T21:52:00.281Z,101745
2017-12-17T21:54:28.346Z,101744
2017-12-17T21:56:56.539Z,101747
2017-12-17T21:59:24.598Z,101741
2017-12-17T22:01:52.671Z,101745
2017-12-17T22:04:21.536Z,101753
2017-12-17T22:06:49.638Z,101753
2017-12-17T22:09:17.723Z,101767
2017-12-17T22:11:45.897Z,101770
2017-12-17T22:14:14.061Z,101757
2017-12-17T22:16:42.128Z,101754
2017-12-17T22:19:10.290Z,101762
2017-12-17T22:21:38.354Z,101759
2017-12-17T22:24:06.445Z,101764
2017-12-17T22:26:40.545Z,101753
2017-12-17T22:29:08.607Z,101763
2017-12-17T22:31:36.666Z,101760
2017-12-17T22:34:04.738Z,101761
2017-12-17T22:36:32.836Z,101758
2017-12-17T22:39:00.911Z,101761
2017-12-17T22:41:28.971Z,101752
2017-12-17T22:43:57.050Z,101758
2017-12-17T22:46:25.998Z,101757
2017-12-17T22:48:54.068Z,101750
2017-12-17T22:51:22.140Z,101747
2017-12-17T22:53:50.220Z,101747
2017-12-17T22:56:18.289Z,101761
2017-12-17T22:58:46.352Z,101747
2017-12-17T23:01:14.438Z,101752
2017-12-17T23:03:42.511Z,101749
2017-12-17T23:06:10.582Z,101746
2017-12-17T23:08:38.653Z,101748
2017-12-17T23:11:06.726Z,101753
2017-12-17T23:13:34.787Z,101743
2017-12-17T23:16:02.856Z,101753
2017-12-17T23:18:30.928Z,101744
2017-12-17T23:20:58.996Z,101755
2017-12-17T23:23:27.059Z,101751
2017-12-17T23:25:55.130Z,101760
2017-12-17T23:28:23.188Z,101755
2017-12-17T23:30:51.263Z,101752
2017-12-17T23:33:19.329Z,101750
2017-12-17T23:35:47.418Z,101748
2017-12-17T23:38:15.477Z,101751
2017-12-17T23:40:43.535Z,101748
2017-12-17T23:43:11.599Z,101741
2017-12-17T23:45:39.667Z,101748
2017-12-17T23:48:07.735Z,101752
2017-12-17T23:50:35.808Z,101739
2017-12-17T23:53:03.875Z,101743
2017-12-17T23:55:32.707Z,101740
2017-12-17T23:58:00.779Z,101743
